createdAt,value
2023-03-10T00:01:17.986Z,45.80
2023-03-10T00:03:46.159Z,39.83
2023-03-10T00:06:15.947Z,52.60
2023-03-10T00:08:43.954Z,41.72
2023-03-10T00:11:12.120Z,43.92
2023-03-10T00:13:39.599Z,43.80
2023-03-10T00:16:08.675Z,43.60
2023-03-10T00:18:36.240Z,41.70
2023-03-10T00:21:03.492Z,39.25
2023-03-10T00:23:31.010Z,42.25
2023-03-10T00:26:00.725Z,40.78
2023-03-10T00:28:28.385Z,41.78
2023-03-10T00:31:04.282Z,44.08
2023-03-10T00:33:35.032Z,43.05
2023-03-10T00:36:08.624Z,39.63
2023-03-10T00:38:36.997Z,38.15
2023-03-10T00:41:11.221Z,40.10
2023-03-10T00:43:38.771Z,37.63
2023-03-10T00:46:08.261Z,41.25
2023-03-10T00:48:36.339Z,36.47
2023-03-10T00:51:04.701Z,36.88
2023-03-10T00:53:34.536Z,38.45
2023-03-10T00:56:10.922Z,37.60
2023-03-10T00:58:39.152Z,36.45
2023-03-10T01:01:14.742Z,35.28
2023-03-10T01:03:42.677Z,34.38
2023-03-10T01:06:10.323Z,36.17
2023-03-10T01:08:38.420Z,32.63
2023-03-10T01:11:05.698Z,34.17
2023-03-10T01:13:33.420Z,37.85
2023-03-10T01:16:00.642Z,36.08
2023-03-10T01:18:28.162Z,40.05
2023-03-10T01:20:55.301Z,30.65
2023-03-10T01:23:24.737Z,37.40
2023-03-10T01:25:52.449Z,34.33
2023-03-10T01:28:21.176Z,37.63
2023-03-10T01:30:49.009Z,38.28
2023-03-10T01:33:17.746Z,32.78
2023-03-10T01:35:45.146Z,35.40
2023-03-10T01:38:12.719Z,36.72
2023-03-10T01:40:41.031Z,37.50
2023-03-10T01:43:20.506Z,34.70
2023-03-10T01:45:48.271Z,36.88
2023-03-10T01:48:19.536Z,35.67
2023-03-10T01:50:53.644Z,36.00
2023-03-10T01:53:22.108Z,37.65
2023-03-10T01:55:57.306Z,43.08
2023-03-10T01:58:27.100Z,40.35
2023-03-10T02:00:55.747Z,35.83
2023-03-10T02:03:27.367Z,34.70
2023-03-10T02:06:00.884Z,36.38
2023-03-10T02:08:33.066Z,46.10
2023-03-10T02:11:01.538Z,39.83
2023-03-10T02:13:28.984Z,41.58
2023-03-10T02:15:56.495Z,38.50
2023-03-10T02:18:25.782Z,43.58
2023-03-10T02:21:14.526Z,45.00
2023-03-10T02:24:09.197Z,45.60
2023-03-10T02:26:39.418Z,49.65
2023-03-10T02:29:11.565Z,49.53
2023-03-10T02:31:39.266Z,49.60
2023-03-10T02:34:07.868Z,49.78
2023-03-10T02:36:35.079Z,57.30
2023-03-10T02:39:02.888Z,61.92
2023-03-10T02:41:33.729Z,60.22
2023-03-10T02:44:04.529Z,55.03
2023-03-10T02:46:31.844Z,55.40
2023-03-10T02:49:01.251Z,52.17
2023-03-10T02:51:44.317Z,53.22
2023-03-10T02:54:15.056Z,51.53
2023-03-10T02:56:43.053Z,50.70
2023-03-10T02:59:12.631Z,53.00
2023-03-10T03:01:45.484Z,52.05
2023-03-10T03:04:13.872Z,53.28
2023-03-10T03:06:41.179Z,58.33
2023-03-10T03:09:09.102Z,54.95
2023-03-10T03:11:36.590Z,62.95
2023-03-10T03:14:07.879Z,58.92
2023-03-10T03:16:35.400Z,57.17
2023-03-10T03:19:06.630Z,57.75
2023-03-10T03:21:33.819Z,60.90
2023-03-10T03:24:01.269Z,60.28
2023-03-10T03:26:28.545Z,64.43
2023-03-10T03:29:01.537Z,63.22
2023-03-10T03:31:32.422Z,61.08
2023-03-10T03:34:29.106Z,66.32
2023-03-10T03:36:59.801Z,62.28
2023-03-10T03:39:32.805Z,65.45
2023-03-10T03:42:03.590Z,60.85
2023-03-10T03:44:38.147Z,73.72
2023-03-10T03:47:08.866Z,67.40
2023-03-10T03:49:38.195Z,68.38
2023-03-10T03:52:07.172Z,75.45
2023-03-10T03:54:34.716Z,69.55
2023-03-10T03:57:02.113Z,76.10
2023-03-10T03:59:29.697Z,75.38
2023-03-10T04:01:57.252Z,70.35
2023-03-10T04:04:26.557Z,76.20
2023-03-10T04:06:54.422Z,71.45
2023-03-10T04:09:22.596Z,74.07
2023-03-10T04:11:50.015Z,81.05
2023-03-10T04:14:18.275Z,78.00
2023-03-10T04:16:45.664Z,80.35
2023-03-10T04:19:13.455Z,82.88
2023-03-10T04:21:44.302Z,78.63
2023-03-10T04:24:13.034Z,88.75
2023-03-10T04:26:40.428Z,80.18
2023-03-10T04:29:08.043Z,86.47
2023-03-10T04:31:37.397Z,82.13
2023-03-10T04:34:06.573Z,88.20
2023-03-10T04:36:33.947Z,88.47
2023-03-10T04:39:05.057Z,94.68
2023-03-10T04:41:32.882Z,94.97
2023-03-10T04:44:00.595Z,96.40
2023-03-10T04:46:28.731Z,97.38
2023-03-10T04:48:57.837Z,102.30
2023-03-10T04:51:25.161Z,98.72
2023-03-10T04:53:54.741Z,97.50
2023-03-10T04:56:22.162Z,97.90
2023-03-10T04:58:49.850Z,101.28
2023-03-10T05:01:17.313Z,99.80
2023-03-10T05:03:52.084Z,108.75
2023-03-10T05:06:21.512Z,105.43
2023-03-10T05:09:18.794Z,100.40
2023-03-10T05:11:46.630Z,100.05
2023-03-10T05:14:15.552Z,99.45
2023-03-10T05:16:43.200Z,101.57
2023-03-10T05:19:10.720Z,96.47
2023-03-10T05:21:37.872Z,98.60
2023-03-10T05:24:05.998Z,97.40
2023-03-10T05:26:34.878Z,93.13
2023-03-10T05:29:03.535Z,102.70
2023-03-10T05:31:51.025Z,100.53
2023-03-10T05:34:26.809Z,95.82
2023-03-10T05:39:24.988Z,96.22
2023-03-10T05:41:55.319Z,93.75
2023-03-10T05:44:26.014Z,89.60
2023-03-10T05:46:53.408Z,96.65
2023-03-10T05:49:21.232Z,91.47
2023-03-10T05:51:49.126Z,85.10
2023-03-10T05:54:16.794Z,91.88
2023-03-10T05:56:44.317Z,87.63
2023-03-10T05:59:11.899Z,85.53
2023-03-10T06:01:39.134Z,88.63
2023-03-10T06:04:06.976Z,86.22
2023-03-10T06:06:34.742Z,82.63
2023-03-10T06:09:03.625Z,84.43
2023-03-10T06:11:30.954Z,78.00
2023-03-10T06:13:58.272Z,83.35
2023-03-10T06:16:25.934Z,82.30
2023-03-10T06:18:55.096Z,77.05
2023-03-10T06:21:23.689Z,76.28
2023-03-10T06:23:51.123Z,79.03
2023-03-10T06:26:18.770Z,76.13
2023-03-10T06:28:46.946Z,81.53
2023-03-10T06:31:19.723Z,68.43
2023-03-10T06:33:47.352Z,72.20
2023-03-10T06:36:15.765Z,68.10
2023-03-10T06:38:43.646Z,59.42
2023-03-10T06:41:11.229Z,55.08
2023-03-10T06:43:39.038Z,60.20
2023-03-10T06:46:09.878Z,53.13
2023-03-10T06:48:39.126Z,60.78
2023-03-10T06:51:08.817Z,49.20
2023-03-10T06:53:36.513Z,43.42
2023-03-10T06:56:07.547Z,44.80
2023-03-10T06:58:37.758Z,44.08
2023-03-10T07:01:07.631Z,46.13
2023-03-10T07:03:35.885Z,42.28
2023-03-10T07:06:04.795Z,48.17
2023-03-10T07:08:31.970Z,41.83
2023-03-10T07:10:59.586Z,43.42
2023-03-10T07:13:26.820Z,55.28
2023-03-10T07:15:54.243Z,44.00
2023-03-10T07:18:21.608Z,38.50
2023-03-10T07:20:49.058Z,41.92
2023-03-10T07:23:16.262Z,48.05
2023-03-10T07:25:43.703Z,38.15
2023-03-10T07:28:10.882Z,39.03
2023-03-10T07:30:39.969Z,36.15
2023-03-10T07:33:07.215Z,37.75
2023-03-10T07:35:37.076Z,32.28
2023-03-10T07:38:04.742Z,34.90
2023-03-10T07:40:32.274Z,34.00
2023-03-10T07:42:59.484Z,37.38
2023-03-10T07:45:30.878Z,35.70
2023-03-10T07:47:58.199Z,40.97
2023-03-10T07:50:26.191Z,32.28
2023-03-10T07:52:54.979Z,33.65
2023-03-10T07:55:24.475Z,35.53
2023-03-10T07:57:51.725Z,28.38
2023-03-10T08:00:19.424Z,22.60
2023-03-10T08:02:46.575Z,26.40
2023-03-10T08:05:14.951Z,21.05
2023-03-10T08:07:43.477Z,25.38
2023-03-10T08:10:11.885Z,31.90
2023-03-10T08:12:39.341Z,27.83
2023-03-10T08:15:07.534Z,23.52
2023-03-10T08:17:35.448Z,22.48
2023-03-10T08:20:06.523Z,21.02
2023-03-10T08:22:33.830Z,20.50
2023-03-10T08:25:02.092Z,15.95
2023-03-10T08:27:30.172Z,23.23
2023-03-10T08:29:57.748Z,17.38
2023-03-10T08:32:25.115Z,13.68
2023-03-10T08:34:52.884Z,13.93
2023-03-10T08:37:20.086Z,18.58
2023-03-10T08:39:47.564Z,14.60
2023-03-10T08:42:14.853Z,13.57
2023-03-10T08:44:42.396Z,18.80
2023-03-10T08:47:09.654Z,19.58
2023-03-10T08:49:37.505Z,13.50
2023-03-10T08:52:04.802Z,15.00
2023-03-10T08:54:32.751Z,14.43
2023-03-10T08:57:01.108Z,21.90
2023-03-10T08:59:28.670Z,15.43
2023-03-10T09:01:55.970Z,13.75
2023-03-10T09:04:23.488Z,23.30
2023-03-10T09:06:50.794Z,11.68
2023-03-10T09:09:18.309Z,12.32
2023-03-10T09:11:45.514Z,11.70
2023-03-10T09:14:17.003Z,19.58
2023-03-10T09:16:44.554Z,25.45
2023-03-10T09:19:12.163Z,14.75
2023-03-10T09:21:40.161Z,12.32
2023-03-10T09:24:07.725Z,10.57
2023-03-10T09:26:35.022Z,15.15
2023-03-10T09:29:03.456Z,46.85
2023-03-10T09:31:36.321Z,16.27
2023-03-10T09:34:04.615Z,12.23
2023-03-10T09:36:32.809Z,12.05
2023-03-10T09:39:01.222Z,15.05
2023-03-10T09:41:41.639Z,13.30
2023-03-10T09:44:15.326Z,16.50
2023-03-10T09:46:53.271Z,14.23
2023-03-10T09:49:51.605Z,9.93
2023-03-10T09:52:28.205Z,12.95
2023-03-10T09:55:06.471Z,10.93
2023-03-10T09:57:34.438Z,11.48
2023-03-10T10:00:05.599Z,17.98
2023-03-10T10:02:37.485Z,15.80
2023-03-10T10:07:49.764Z,21.20
2023-03-10T10:10:19.980Z,11.68
2023-03-10T10:12:52.431Z,15.52
2023-03-10T10:15:22.456Z,9.43
2023-03-10T10:18:19.654Z,11.10
2023-03-10T10:20:54.103Z,9.25
2023-03-10T10:23:47.664Z,10.27
2023-03-10T10:26:16.507Z,11.93
2023-03-10T10:29:15.378Z,11.13
2023-03-10T10:31:43.271Z,9.30
2023-03-10T10:34:22.002Z,8.82
2023-03-10T10:36:52.525Z,7.82
2023-03-10T10:39:31.513Z,9.18
2023-03-10T10:42:20.084Z,9.68
2023-03-10T10:44:47.637Z,12.07
2023-03-10T10:47:31.671Z,13.35
2023-03-10T10:50:23.286Z,8.38
2023-03-10T10:52:53.719Z,11.60
2023-03-10T10:55:34.913Z,86.63
2023-03-10T10:58:06.638Z,25.13
2023-03-10T11:00:37.443Z,7.60
2023-03-10T11:03:20.424Z,37.63
2023-03-10T11:05:47.617Z,9.68
2023-03-10T11:08:27.994Z,10.88
2023-03-10T11:11:02.438Z,7.57
2023-03-10T11:13:43.991Z,11.45
2023-03-10T11:16:31.891Z,4.03
2023-03-10T11:19:28.378Z,9.07
2023-03-10T11:22:07.585Z,22.73
2023-03-10T11:24:48.840Z,5.85
2023-03-10T11:27:39.996Z,9.85
2023-03-10T11:30:13.561Z,12.00
2023-03-10T11:33:12.106Z,5.15
2023-03-10T11:35:45.780Z,6.75
2023-03-10T11:38:13.388Z,8.77
2023-03-10T11:40:58.275Z,5.68
2023-03-10T11:43:28.544Z,6.72
2023-03-10T11:45:57.401Z,5.22
2023-03-10T11:48:25.177Z,3.40
2023-03-10T11:50:59.307Z,5.75
2023-03-10T11:53:38.967Z,8.45
2023-03-10T11:56:08.051Z,7.25
2023-03-10T11:58:58.693Z,6.10
2023-03-10T12:01:55.800Z,8.68
2023-03-10T12:04:30.762Z,3.75
2023-03-10T12:07:12.123Z,6.43
2023-03-10T12:09:42.335Z,5.75
2023-03-10T12:12:14.200Z,6.72
2023-03-10T12:14:42.315Z,5.05
2023-03-10T12:17:13.110Z,6.30
2023-03-10T12:20:19.329Z,5.13
2023-03-10T12:22:51.485Z,4.97
2023-03-10T12:25:32.938Z,4.28
2023-03-10T12:28:32.891Z,7.80
2023-03-10T12:31:32.092Z,3.35
2023-03-10T12:34:22.944Z,8.48
2023-03-10T12:37:02.588Z,9.32
2023-03-10T12:39:39.878Z,27.15
2023-03-10T12:42:14.722Z,12.82
2023-03-10T12:44:55.268Z,16.90
2023-03-10T12:47:29.409Z,38.28
2023-03-10T12:50:20.369Z,153.77
2023-03-10T12:52:52.781Z,317.98
2023-03-10T12:55:25.181Z,292.45
2023-03-10T12:57:55.491Z,611.30
2023-03-10T13:00:23.271Z,531.33
2023-03-10T13:02:58.048Z,538.38
2023-03-10T13:05:27.584Z,626.97
2023-03-10T13:07:57.467Z,490.08
2023-03-10T13:10:26.130Z,602.25
2023-03-10T13:13:05.589Z,35.47
2023-03-10T13:15:34.215Z,80.55
2023-03-10T13:18:12.471Z,271.88
2023-03-10T13:20:40.430Z,278.85
2023-03-10T13:23:18.838Z,90.38
2023-03-10T13:25:53.679Z,129.63
2023-03-10T13:28:21.538Z,101.05
2023-03-10T13:30:49.391Z,161.27
2023-03-10T13:33:24.026Z,60.88
2023-03-10T13:35:53.595Z,127.45
2023-03-10T13:38:22.106Z,108.18
2023-03-10T13:41:00.533Z,113.78
2023-03-10T13:43:34.882Z,37.22
2023-03-10T13:46:04.196Z,77.95
2023-03-10T13:48:32.861Z,84.57
2023-03-10T13:51:07.107Z,74.20
2023-03-10T13:53:34.892Z,12.23
2023-03-10T13:56:10.388Z,4.20
2023-03-10T13:58:38.705Z,5.25
2023-03-10T14:01:07.584Z,14.70
2023-03-10T14:03:35.297Z,81.13
2023-03-10T14:06:12.774Z,49.85
2023-03-10T14:08:40.375Z,96.38
2023-03-10T14:11:34.244Z,11.30
2023-03-10T14:14:04.903Z,141.85
2023-03-10T14:16:56.928Z,25.92
2023-03-10T14:19:47.797Z,132.02
2023-03-10T14:22:43.371Z,186.48
2023-03-10T14:25:21.753Z,8.60
2023-03-10T14:27:54.558Z,54.20
2023-03-10T14:30:23.723Z,126.80
2023-03-10T14:32:52.027Z,68.90
2023-03-10T14:35:21.099Z,101.47
2023-03-10T14:37:49.806Z,47.42
2023-03-10T14:40:18.593Z,130.38
2023-03-10T14:42:47.708Z,113.40
2023-03-10T14:45:26.170Z,65.13
2023-03-10T14:47:56.954Z,72.95
2023-03-10T14:50:25.316Z,39.13
2023-03-10T14:52:53.089Z,96.65
2023-03-10T14:55:20.807Z,30.98
2023-03-10T14:57:53.679Z,57.65
2023-03-10T15:00:22.266Z,78.30
2023-03-10T15:02:49.722Z,45.63
2023-03-10T15:05:19.985Z,42.53
2023-03-10T15:07:48.982Z,72.57
2023-03-10T15:10:20.785Z,68.93
2023-03-10T15:12:53.532Z,78.25
2023-03-10T15:15:23.377Z,6.53
2023-03-10T15:17:51.339Z,33.28
2023-03-10T15:20:22.198Z,12.73
2023-03-10T15:22:50.878Z,38.15
2023-03-10T15:25:20.433Z,33.83
2023-03-10T15:27:49.827Z,46.97
2023-03-10T15:30:24.810Z,46.90
2023-03-10T15:32:53.205Z,20.17
2023-03-10T15:35:21.847Z,10.43
2023-03-10T15:37:50.963Z,23.77
2023-03-10T15:40:36.694Z,67.68
2023-03-10T15:43:04.217Z,16.88
2023-03-10T15:45:32.079Z,32.40
2023-03-10T15:47:59.688Z,13.32
2023-03-10T15:50:27.006Z,28.10
2023-03-10T15:52:56.633Z,46.42
2023-03-10T15:55:25.256Z,6.13
2023-03-10T15:57:52.749Z,20.17
2023-03-10T16:00:22.678Z,20.23
2023-03-10T16:02:51.517Z,20.40
2023-03-10T16:05:19.002Z,23.73
2023-03-10T16:07:46.631Z,7.85
2023-03-10T16:10:16.872Z,98.45
2023-03-10T16:12:44.824Z,40.28
2023-03-10T16:15:12.678Z,92.10
2023-03-10T16:17:40.943Z,19.40
2023-03-10T16:20:12.202Z,7.00
2023-03-10T16:22:41.423Z,26.02
2023-03-10T16:25:15.335Z,39.22
2023-03-10T16:27:44.617Z,33.22
2023-03-10T16:30:13.556Z,30.17
2023-03-10T16:32:45.457Z,14.45
2023-03-10T16:35:12.647Z,14.90
2023-03-10T16:37:40.110Z,24.42
2023-03-10T16:40:08.295Z,24.20
2023-03-10T16:42:36.802Z,16.13
2023-03-10T16:45:05.354Z,16.73
2023-03-10T16:47:33.370Z,15.95
2023-03-10T16:50:00.773Z,10.07
2023-03-10T16:52:28.367Z,19.73
2023-03-10T16:55:00.689Z,13.52
2023-03-10T16:57:28.376Z,20.75
2023-03-10T16:59:55.563Z,22.83
2023-03-10T17:02:23.038Z,16.55
2023-03-10T17:04:50.345Z,15.75
2023-03-10T17:07:19.297Z,10.98
2023-03-10T17:09:46.856Z,28.80
2023-03-10T17:12:14.383Z,11.93
2023-03-10T17:14:43.892Z,22.25
2023-03-10T17:17:11.501Z,14.05
2023-03-10T17:19:38.814Z,16.85
2023-03-10T17:22:06.258Z,17.50
2023-03-10T17:24:33.579Z,17.35
2023-03-10T17:27:01.256Z,20.02
2023-03-10T17:29:28.515Z,13.02
2023-03-10T17:31:56.119Z,18.67
2023-03-10T17:34:23.536Z,31.83
2023-03-10T17:36:51.348Z,23.73
2023-03-10T17:39:21.130Z,26.23
2023-03-10T17:41:49.090Z,24.25
2023-03-10T17:44:16.578Z,19.52
2023-03-10T17:46:44.113Z,804.13
2023-03-10T17:49:13.377Z,296.70
2023-03-10T17:51:44.285Z,170.70
2023-03-10T17:54:14.684Z,49.80
2023-03-10T17:56:42.580Z,27.63
2023-03-10T17:59:14.157Z,53.20
2023-03-10T18:01:43.699Z,140.90
2023-03-10T18:04:11.231Z,225.82
2023-03-10T18:06:38.804Z,187.18
2023-03-10T18:09:09.007Z,80.93
2023-03-10T18:11:36.881Z,52.92
2023-03-10T18:14:04.639Z,49.80
2023-03-10T18:16:36.942Z,49.13
2023-03-10T18:19:04.548Z,40.53
2023-03-10T18:21:32.187Z,39.78
2023-03-10T18:23:59.392Z,27.08
2023-03-10T18:26:30.444Z,31.75
2023-03-10T18:28:59.233Z,44.25
2023-03-10T18:31:32.407Z,34.63
2023-03-10T18:34:00.412Z,40.28
2023-03-10T18:36:28.628Z,46.65
2023-03-10T18:38:56.496Z,41.28
2023-03-10T18:41:26.968Z,36.17
2023-03-10T18:43:54.788Z,29.48
2023-03-10T18:46:22.446Z,37.97
2023-03-10T18:48:55.470Z,43.00
2023-03-10T18:51:24.824Z,55.35
2023-03-10T18:53:55.267Z,55.72
2023-03-10T18:56:25.996Z,46.45
2023-03-10T18:58:53.509Z,51.45
2023-03-10T19:01:22.094Z,55.38
2023-03-10T19:03:49.395Z,48.08
2023-03-10T19:06:17.322Z,46.40
2023-03-10T19:08:45.591Z,45.72
2023-03-10T19:11:15.290Z,51.63
2023-03-10T19:13:44.708Z,54.65
2023-03-10T19:16:12.742Z,44.78
2023-03-10T19:18:40.402Z,50.45
2023-03-10T19:21:09.457Z,53.60
2023-03-10T19:23:36.848Z,53.75
2023-03-10T19:26:04.678Z,55.75
2023-03-10T19:28:32.138Z,50.35
2023-03-10T19:30:59.871Z,51.80
2023-03-10T19:33:27.478Z,46.10
2023-03-10T19:36:06.115Z,57.65
2023-03-10T19:38:37.457Z,45.83
2023-03-10T19:41:06.506Z,59.35
2023-03-10T19:43:33.699Z,48.42
2023-03-10T19:46:07.842Z,54.17
2023-03-10T19:48:35.338Z,48.55
2023-03-10T19:51:03.011Z,50.33
2023-03-10T19:53:30.193Z,55.28
2023-03-10T19:56:00.144Z,46.53
2023-03-10T19:58:27.494Z,53.47
2023-03-10T20:00:57.886Z,56.08
2023-03-10T20:03:27.447Z,50.08
2023-03-10T20:05:55.260Z,44.95
2023-03-10T20:08:23.447Z,42.78
2023-03-10T20:10:51.108Z,46.83
2023-03-10T20:13:18.347Z,47.33
2023-03-10T20:15:45.871Z,52.05
2023-03-10T20:18:13.366Z,48.15
2023-03-10T20:20:41.209Z,41.88
2023-03-10T20:23:08.643Z,45.10
2023-03-10T20:25:36.113Z,54.35
2023-03-10T20:28:03.385Z,49.22
2023-03-10T20:30:31.245Z,49.05
2023-03-10T20:33:00.284Z,47.47
2023-03-10T20:35:30.265Z,46.92
2023-03-10T20:37:58.650Z,48.15
2023-03-10T20:40:27.083Z,46.75
2023-03-10T20:42:56.474Z,46.83
2023-03-10T20:45:24.051Z,46.15
2023-03-10T20:47:53.191Z,40.63
2023-03-10T20:50:21.086Z,43.65
2023-03-10T20:52:49.031Z,45.55
2023-03-10T20:55:27.912Z,35.15
2023-03-10T20:57:57.931Z,44.45
2023-03-10T21:00:27.388Z,41.53
2023-03-10T21:02:57.729Z,44.80
2023-03-10T21:05:27.133Z,52.38
2023-03-10T21:07:54.764Z,41.40
2023-03-10T21:10:22.743Z,38.50
2023-03-10T21:12:50.118Z,34.65
2023-03-10T21:15:19.322Z,34.78
2023-03-10T21:17:47.422Z,36.63
2023-03-10T21:20:17.508Z,45.38
2023-03-10T21:22:44.852Z,44.42
2023-03-10T21:25:16.704Z,35.40
2023-03-10T21:27:47.577Z,34.88
2023-03-10T21:30:15.558Z,34.50
2023-03-10T21:32:43.465Z,32.15
2023-03-10T21:35:13.889Z,29.05
2023-03-10T21:37:46.752Z,36.42
2023-03-10T21:40:19.694Z,50.78
2023-03-10T21:42:48.461Z,53.30
2023-03-10T21:45:19.260Z,41.40
2023-03-10T21:47:46.751Z,33.17
2023-03-10T21:50:15.575Z,41.05
2023-03-10T21:52:42.931Z,36.17
2023-03-10T21:55:21.505Z,32.25
2023-03-10T21:57:49.657Z,38.75
2023-03-10T22:00:20.102Z,36.28
2023-03-10T22:02:47.762Z,43.88
2023-03-10T22:05:17.096Z,33.22
2023-03-10T22:07:44.476Z,41.15
2023-03-10T22:10:14.455Z,34.42
2023-03-10T22:12:41.779Z,41.33
2023-03-10T22:15:15.411Z,34.22
2023-03-10T22:17:42.606Z,33.92
2023-03-10T22:20:18.474Z,29.05
2023-03-10T22:22:45.753Z,29.77
2023-03-10T22:25:14.630Z,35.20
2023-03-10T22:27:42.983Z,35.35
2023-03-10T22:30:11.365Z,47.30
2023-03-10T22:32:38.604Z,58.30
2023-03-10T22:35:06.538Z,33.55
2023-03-10T22:37:33.700Z,46.80
2023-03-10T22:40:01.213Z,71.25
2023-03-10T22:42:28.380Z,100.18
2023-03-10T22:44:55.864Z,65.95
2023-03-10T22:47:23.169Z,102.88
2023-03-10T22:49:50.655Z,94.65
2023-03-10T22:52:17.876Z,146.50
2023-03-10T22:54:45.329Z,99.70
2023-03-10T22:57:15.160Z,118.82
2023-03-10T22:59:42.772Z,165.73
2023-03-10T23:02:10.706Z,125.82
2023-03-10T23:04:39.068Z,209.75
2023-03-10T23:07:06.396Z,179.80
2023-03-10T23:09:33.930Z,175.68
2023-03-10T23:12:01.104Z,92.97
2023-03-10T23:14:28.545Z,92.38
2023-03-10T23:16:56.592Z,115.80
2023-03-10T23:19:24.106Z,114.05
2023-03-10T23:21:51.437Z,89.97
2023-03-10T23:24:19.142Z,147.73
2023-03-10T23:26:46.485Z,96.53
2023-03-10T23:29:13.960Z,144.38
2023-03-10T23:31:41.229Z,164.98
2023-03-10T23:34:08.774Z,174.02
2023-03-10T23:36:36.066Z,60.40
2023-03-10T23:39:03.964Z,48.83
2023-03-10T23:41:31.364Z,121.00
2023-03-10T23:43:58.936Z,76.25
2023-03-10T23:46:26.238Z,225.00
2023-03-10T23:48:53.751Z,232.07
2023-03-10T23:51:20.962Z,90.53
2023-03-10T23:53:48.537Z,81.70
2023-03-10T23:56:15.755Z,61.78
2023-03-10T23:58:43.185Z,48.47
